الصفحة الرئيسية
METAR-TAF:

METAR-TAF

مطار :

كورياما, اليابان

دائرة عرض: 37-24N, خط طول: 140-23E, ارتفاع: 372 متر

مراقبة الطقس الحالي

تاريخ ووقت الإصدار 37 دقيقة قبل الساعة 21:00UTC
ريح 4 عقدة من الشمال
درجة الحرارة 26°درجة مئوية
الرطوبة 84%
ضغط 1011 hPa
الرؤية 10 كم أو أكثر

METAR: RJSF 212100Z AUTO 01004KT 9999 NSC 26/23 Q1011

زمن: 06:37 (21:37 UTC)

توقعات

تاريخ ووقت الإصدار 4ساعات و 31 دقيقة قبل الساعة 17:06UTC
التوقعات صالحة من21 الساعة 18 UTC إلى 23 الساعة 00 UTC
ريح 4 عقدة من الجنوب الشرقي
الرؤية 10 كم أو أكثر
غيوم قليلة على ارتفاع 3000 قدم
أصبح
من 21 الساعة 21 UTC إلى 21 الساعة 23 UTC
ريح 12 عقدة من الشمال الغربي
أصبح
من 22 الساعة 15 UTC إلى 22 الساعة 18 UTC
ريح 4 عقدة من الجنوب الشرقي

TAF: RJSF 211706Z 2118/2300 14004KT 9999 FEW030 BECMG 2121/2123 32012KT BECMG 2215/2218 14004KT

أرصاد الطقس والتوقعات من أكثر من 4000 مطار (تقارير الطقس للمطار METAR والتنبؤ بالطقس بالمطارTAF).

المحطات المتاحة هي النقط الصفراء والحمراء على الخريطة.

حرك المؤشر فوق النقطة لمعرفة اسم المحطة.

ثم انقر لمعرفة أرصاد وتوقعات الطقس.

لتغيير الخارطة: اضغط على الأزرار الخضراء مع رمز الصليب الأسود للتكبير. على الزر الأخضر مع شرطة للتصغير، أو على الأسهم الخضراء للخرائط المجاورة.


METAR-TAF: